KLM810 WIII-WMKK
Flight info
| Callsign | KLM810 |
|---|---|
| Flight time | 1h 26m |
| Altitude | 40000 |
| Route | DOLTA A585 PKU/N0485F410 N633 SALAX SALAX3J |
| Aircraft | B789/H-SDE2E3GHIJ1J3J5P2RWXYZ/LD1B1 |
Departure
| Time | 2026-05-04 20:52 |
|---|---|
| Airport | Soekarno-Hatta International Airport (WIII) |
Arrival
| Time | 2026-05-04 22:19 |
|---|---|
| Airport | Kuala Lumpur International Airport (WMKK) |
| Time | Latitude | Longitude | Altitude | Speed | Heading |
|---|---|---|---|---|---|
| 2026-05-04 20:43 | -6.12239 | 106.64906 | 42 ft | 0 kts | 143° |
| 2026-05-04 20:45 | -6.12224 | 106.64895 | 43 ft | 4 kts | 143° |
| 2026-05-04 20:45 | -6.12206 | 106.64882 | 44 ft | 4 kts | 153° |
| 2026-05-04 20:45 | -6.12182 | 106.64876 | 42 ft | 4 kts | 198° |
| 2026-05-04 20:46 | -6.12166 | 106.64890 | 44 ft | 4 kts | 248° |
| 2026-05-04 20:46 | -6.12158 | 106.64911 | 44 ft | 0 kts | 248° |
| 2026-05-04 20:48 | -6.12159 | 106.64909 | 44 ft | 2 kts | 248° |
| 2026-05-04 20:48 | -6.12172 | 106.64876 | 44 ft | 8 kts | 247° |
| 2026-05-04 20:48 | -6.12200 | 106.64809 | 44 ft | 13 kts | 247° |
| 2026-05-04 20:48 | -6.12197 | 106.64740 | 44 ft | 4 kts | 312° |
| 2026-05-04 20:49 | -6.12180 | 106.64733 | 44 ft | 5 kts | 339° |
| 2026-05-04 20:49 | -6.12128 | 106.64713 | 44 ft | 11 kts | 339° |
| 2026-05-04 20:49 | -6.12045 | 106.64684 | 44 ft | 13 kts | 339° |
| 2026-05-04 20:49 | -6.12003 | 106.64649 | 44 ft | 3 kts | 276° |
| 2026-05-04 20:50 | -6.12008 | 106.64599 | 45 ft | 12 kts | 256° |
| 2026-05-04 20:50 | -6.12052 | 106.64495 | 44 ft | 21 kts | 248° |
| 2026-05-04 20:50 | -6.12116 | 106.64335 | 44 ft | 26 kts | 248° |
| 2026-05-04 20:50 | -6.12182 | 106.64167 | 43 ft | 26 kts | 248° |
| 2026-05-04 20:51 | -6.12248 | 106.64000 | 42 ft | 25 kts | 248° |
| 2026-05-04 20:51 | -6.12250 | 106.63913 | 45 ft | 4 kts | 320° |
| 2026-05-04 20:51 | -6.12211 | 106.63895 | 46 ft | 10 kts | 343° |
| 2026-05-04 20:51 | -6.12124 | 106.63916 | 47 ft | 18 kts | 26° |
| 2026-05-04 20:52 | -6.12036 | 106.64044 | 46 ft | 36 kts | 68° |
| 2026-05-04 20:52 | -6.11842 | 106.64532 | 44 ft | 115 kts | 68° |
| 2026-05-04 20:52 | -6.11452 | 106.65512 | 154 ft | 175 kts | 64° |
| 2026-05-04 20:52 | -6.10990 | 106.66620 | 1229 ft | 169 kts | 66° |
| 2026-05-04 20:53 | -6.10250 | 106.67557 | 2133 ft | 180 kts | 38° |
| 2026-05-04 20:53 | -6.09178 | 106.68244 | 3041 ft | 184 kts | 31° |
| 2026-05-04 20:53 | -6.08024 | 106.68929 | 3723 ft | 206 kts | 33° |
| 2026-05-04 20:53 | -6.06743 | 106.69775 | 4297 ft | 234 kts | 35° |
| 2026-05-04 20:54 | -6.05308 | 106.70760 | 4865 ft | 265 kts | 35° |
| 2026-05-04 20:54 | -6.03736 | 106.71831 | 5042 ft | 279 kts | 35° |
| 2026-05-04 20:54 | -6.02145 | 106.72900 | 6300 ft | 272 kts | 34° |
| 2026-05-04 20:54 | -6.00386 | 106.73620 | 7395 ft | 281 kts | 3° |
| 2026-05-04 20:55 | -5.98454 | 106.73281 | 8459 ft | 289 kts | 336° |
| 2026-05-04 20:55 | -5.96801 | 106.72115 | 9506 ft | 295 kts | 317° |
| 2026-05-04 20:55 | -5.95332 | 106.70644 | 10413 ft | 306 kts | 314° |
| 2026-05-04 20:55 | -5.93766 | 106.69067 | 10825 ft | 332 kts | 316° |
| 2026-05-04 20:56 | -5.92033 | 106.67441 | 11137 ft | 359 kts | 317° |
| 2026-05-04 20:56 | -5.90119 | 106.65671 | 11698 ft | 373 kts | 317° |
| 2026-05-04 20:56 | -5.88252 | 106.63905 | 12648 ft | 376 kts | 316° |
| 2026-05-04 20:56 | -5.86341 | 106.62082 | 13489 ft | 381 kts | 317° |
| 2026-05-04 20:57 | -5.84400 | 106.60244 | 14319 ft | 387 kts | 317° |
| 2026-05-04 20:57 | -5.82423 | 106.58382 | 15137 ft | 392 kts | 317° |
| 2026-05-04 20:57 | -5.80425 | 106.56494 | 15946 ft | 397 kts | 317° |
| 2026-05-04 20:57 | -5.78403 | 106.54582 | 16696 ft | 402 kts | 317° |
| 2026-05-04 20:58 | -5.76356 | 106.52646 | 17420 ft | 407 kts | 317° |
| 2026-05-04 20:58 | -5.74284 | 106.50690 | 18094 ft | 411 kts | 317° |
| 2026-05-04 20:58 | -5.72191 | 106.48712 | 18752 ft | 416 kts | 317° |
| 2026-05-04 20:58 | -5.70071 | 106.46711 | 19391 ft | 420 kts | 317° |
| 2026-05-04 20:59 | -5.67933 | 106.44689 | 20008 ft | 425 kts | 317° |
| 2026-05-04 20:59 | -5.65771 | 106.42647 | 20608 ft | 429 kts | 317° |
| 2026-05-04 20:59 | -5.63589 | 106.40586 | 21169 ft | 433 kts | 317° |
| 2026-05-04 20:59 | -5.61387 | 106.38507 | 21702 ft | 437 kts | 317° |
| 2026-05-04 21:00 | -5.59160 | 106.36404 | 22232 ft | 441 kts | 317° |
| 2026-05-04 21:00 | -5.56917 | 106.34286 | 22719 ft | 444 kts | 317° |
| 2026-05-04 21:00 | -5.54642 | 106.32138 | 22856 ft | 453 kts | 317° |
| 2026-05-04 21:00 | -5.52385 | 106.30008 | 22851 ft | 449 kts | 317° |
| 2026-05-04 21:01 | -5.50116 | 106.27866 | 22856 ft | 447 kts | 317° |
| 2026-05-04 21:01 | -5.47842 | 106.25720 | 23025 ft | 449 kts | 317° |
| 2026-05-04 21:01 | -5.45565 | 106.23572 | 23577 ft | 450 kts | 317° |
| 2026-05-04 21:01 | -5.43270 | 106.21407 | 23986 ft | 454 kts | 317° |
| 2026-05-04 21:02 | -5.40961 | 106.19229 | 24428 ft | 457 kts | 317° |
| 2026-05-04 21:02 | -5.38634 | 106.17033 | 24847 ft | 460 kts | 317° |
| 2026-05-04 21:02 | -5.36296 | 106.14828 | 25255 ft | 462 kts | 317° |
| 2026-05-04 21:02 | -5.33942 | 106.12608 | 25651 ft | 465 kts | 317° |
| 2026-05-04 21:03 | -5.31578 | 106.10379 | 26049 ft | 467 kts | 317° |
| 2026-05-04 21:03 | -5.29204 | 106.08140 | 26415 ft | 470 kts | 317° |
| 2026-05-04 21:03 | -5.26816 | 106.05888 | 26810 ft | 472 kts | 317° |
| 2026-05-04 21:03 | -5.24416 | 106.03627 | 27164 ft | 474 kts | 317° |
| 2026-05-04 21:04 | -5.22000 | 106.01350 | 27524 ft | 477 kts | 317° |
| 2026-05-04 21:04 | -5.19580 | 105.99068 | 27876 ft | 479 kts | 317° |
| 2026-05-04 21:04 | -5.17144 | 105.96772 | 28213 ft | 481 kts | 317° |
| 2026-05-04 21:04 | -5.14698 | 105.94468 | 28544 ft | 484 kts | 317° |
| 2026-05-04 21:05 | -5.12058 | 105.92376 | 28851 ft | 485 kts | 327° |
| 2026-05-04 21:05 | -5.09157 | 105.90640 | 29148 ft | 487 kts | 332° |
| 2026-05-04 21:05 | -5.06157 | 105.89043 | 29459 ft | 489 kts | 333° |
| 2026-05-04 21:05 | -5.03166 | 105.87404 | 29768 ft | 492 kts | 329° |
| 2026-05-04 21:06 | -5.00296 | 105.85608 | 30061 ft | 493 kts | 327° |
| 2026-05-04 21:06 | -4.97387 | 105.83765 | 30338 ft | 495 kts | 329° |
| 2026-05-04 21:06 | -4.94410 | 105.82008 | 30600 ft | 497 kts | 330° |
| 2026-05-04 21:06 | -4.91409 | 105.80270 | 30864 ft | 499 kts | 330° |
| 2026-05-04 21:07 | -4.88423 | 105.78477 | 31110 ft | 501 kts | 329° |
| 2026-05-04 21:07 | -4.85440 | 105.76654 | 31363 ft | 503 kts | 329° |
| 2026-05-04 21:07 | -4.82431 | 105.74847 | 31606 ft | 505 kts | 330° |
| 2026-05-04 21:07 | -4.79401 | 105.73053 | 31844 ft | 507 kts | 330° |
| 2026-05-04 21:08 | -4.76364 | 105.71240 | 32075 ft | 508 kts | 329° |
| 2026-05-04 21:08 | -4.73325 | 105.69410 | 32282 ft | 510 kts | 329° |
| 2026-05-04 21:08 | -4.70280 | 105.67579 | 32547 ft | 511 kts | 329° |
| 2026-05-04 21:08 | -4.67230 | 105.65758 | 32880 ft | 509 kts | 329° |
| 2026-05-04 21:09 | -4.64187 | 105.63941 | 33217 ft | 509 kts | 329° |
| 2026-05-04 21:09 | -4.61156 | 105.62125 | 33551 ft | 508 kts | 329° |
| 2026-05-04 21:09 | -4.58124 | 105.60308 | 33876 ft | 507 kts | 329° |
| 2026-05-04 21:09 | -4.55102 | 105.58500 | 34205 ft | 506 kts | 329° |
| 2026-05-04 21:10 | -4.53103 | 105.57304 | 34415 ft | 505 kts | 329° |
| 2026-05-04 21:10 | -4.50086 | 105.55500 | 34737 ft | 505 kts | 329° |
| 2026-05-04 21:10 | -4.47076 | 105.53699 | 35055 ft | 504 kts | 330° |
| 2026-05-04 21:10 | -4.44019 | 105.51995 | 35382 ft | 502 kts | 333° |
| 2026-05-04 21:11 | -4.40888 | 105.50444 | 35674 ft | 502 kts | 334° |
| 2026-05-04 21:11 | -4.37776 | 105.48862 | 35975 ft | 501 kts | 332° |
| 2026-05-04 21:11 | -4.34717 | 105.47192 | 36261 ft | 500 kts | 332° |
| 2026-05-04 21:11 | -4.31660 | 105.45529 | 36532 ft | 500 kts | 332° |
| 2026-05-04 21:12 | -4.28577 | 105.43919 | 36815 ft | 499 kts | 333° |
| 2026-05-04 21:12 | -4.25512 | 105.42326 | 37278 ft | 493 kts | 333° |
| 2026-05-04 21:12 | -4.22494 | 105.40722 | 37683 ft | 489 kts | 332° |
| 2026-05-04 21:12 | -4.19492 | 105.39115 | 37912 ft | 489 kts | 332° |
| 2026-05-04 21:13 | -4.16483 | 105.37525 | 38124 ft | 489 kts | 333° |
| 2026-05-04 21:13 | -4.13471 | 105.35943 | 38331 ft | 489 kts | 332° |
| 2026-05-04 21:13 | -4.10466 | 105.34352 | 38536 ft | 488 kts | 332° |
| 2026-05-04 21:13 | -4.07465 | 105.32758 | 38745 ft | 488 kts | 332° |
| 2026-05-04 21:14 | -4.04460 | 105.31171 | 38953 ft | 488 kts | 332° |
| 2026-05-04 21:14 | -4.01458 | 105.29588 | 39149 ft | 488 kts | 332° |
| 2026-05-04 21:14 | -3.98457 | 105.28000 | 39348 ft | 488 kts | 332° |
| 2026-05-04 21:14 | -3.95460 | 105.26413 | 39555 ft | 487 kts | 332° |
| 2026-05-04 21:15 | -3.92465 | 105.24830 | 39756 ft | 487 kts | 332° |
| 2026-05-04 21:15 | -3.89467 | 105.23247 | 39856 ft | 489 kts | 333° |
| 2026-05-04 21:15 | -3.83494 | 105.20089 | 39854 ft | 487 kts | 333° |
| 2026-05-04 21:16 | -3.77520 | 105.16931 | 39853 ft | 485 kts | 333° |
| 2026-05-04 21:16 | -3.71557 | 105.13781 | 39853 ft | 484 kts | 333° |
| 2026-05-04 21:17 | -3.65600 | 105.10634 | 39851 ft | 484 kts | 333° |
| 2026-05-04 21:17 | -3.59647 | 105.07489 | 39852 ft | 484 kts | 333° |
| 2026-05-04 21:18 | -3.53691 | 105.04344 | 39851 ft | 484 kts | 333° |
| 2026-05-04 21:18 | -3.47736 | 105.01199 | 39853 ft | 484 kts | 333° |
| 2026-05-04 21:19 | -3.41772 | 104.98050 | 39854 ft | 485 kts | 333° |
| 2026-05-04 21:19 | -3.35795 | 104.94896 | 39857 ft | 486 kts | 333° |
| 2026-05-04 21:20 | -3.29810 | 104.91735 | 39862 ft | 487 kts | 333° |
| 2026-05-04 21:20 | -3.23816 | 104.88573 | 39865 ft | 486 kts | 333° |
| 2026-05-04 21:21 | -3.17835 | 104.85417 | 39863 ft | 485 kts | 333° |
| 2026-05-04 21:21 | -3.11867 | 104.82268 | 39861 ft | 484 kts | 333° |
| 2026-05-04 21:22 | -3.05954 | 104.79147 | 39854 ft | 483 kts | 333° |
| 2026-05-04 21:22 | -2.99995 | 104.76004 | 39855 ft | 485 kts | 333° |
| 2026-05-04 21:23 | -2.94010 | 104.72847 | 39864 ft | 487 kts | 333° |
| 2026-05-04 21:23 | -2.88017 | 104.69687 | 39864 ft | 486 kts | 333° |
| 2026-05-04 21:24 | -2.82036 | 104.66532 | 39863 ft | 485 kts | 333° |
| 2026-05-04 21:24 | -2.76071 | 104.63388 | 39861 ft | 484 kts | 333° |
| 2026-05-04 21:25 | -2.70107 | 104.60244 | 39860 ft | 484 kts | 333° |
| 2026-05-04 21:25 | -2.64145 | 104.57101 | 39860 ft | 484 kts | 333° |
| 2026-05-04 21:26 | -2.58190 | 104.53962 | 39859 ft | 484 kts | 333° |
| 2026-05-04 21:26 | -2.52227 | 104.50819 | 39860 ft | 485 kts | 333° |
| 2026-05-04 21:27 | -2.46263 | 104.47676 | 39864 ft | 485 kts | 333° |
| 2026-05-04 21:27 | -2.40284 | 104.44527 | 39866 ft | 485 kts | 333° |
| 2026-05-04 21:28 | -2.34302 | 104.41375 | 39867 ft | 486 kts | 333° |
| 2026-05-04 21:28 | -2.28314 | 104.38222 | 39867 ft | 486 kts | 333° |
| 2026-05-04 21:29 | -2.22341 | 104.35074 | 39866 ft | 485 kts | 333° |
| 2026-05-04 21:29 | -2.16423 | 104.31958 | 39866 ft | 483 kts | 333° |
| 2026-05-04 21:30 | -2.10478 | 104.28826 | 39862 ft | 482 kts | 333° |
| 2026-05-04 21:30 | -2.04545 | 104.25702 | 39857 ft | 482 kts | 333° |
| 2026-05-04 21:31 | -1.95612 | 104.20998 | 39863 ft | 485 kts | 333° |
| 2026-05-04 21:32 | -1.89637 | 104.17853 | 39866 ft | 485 kts | 333° |
| 2026-05-04 21:32 | -1.83672 | 104.14713 | 39868 ft | 484 kts | 333° |
| 2026-05-04 21:33 | -1.77719 | 104.11578 | 39863 ft | 483 kts | 333° |
| 2026-05-04 21:33 | -1.71775 | 104.08450 | 39859 ft | 482 kts | 333° |
| 2026-05-04 21:34 | -1.65830 | 104.05319 | 39861 ft | 484 kts | 333° |
| 2026-05-04 21:34 | -1.59868 | 104.02183 | 39863 ft | 485 kts | 333° |
| 2026-05-04 21:35 | -1.53900 | 103.99042 | 39868 ft | 485 kts | 333° |
| 2026-05-04 21:35 | -1.47924 | 103.95897 | 39867 ft | 485 kts | 333° |
| 2026-05-04 21:36 | -1.41945 | 103.92751 | 39869 ft | 486 kts | 333° |
| 2026-05-04 21:36 | -1.35969 | 103.89607 | 39870 ft | 486 kts | 333° |
| 2026-05-04 21:37 | -1.30025 | 103.86479 | 39869 ft | 485 kts | 333° |
| 2026-05-04 21:37 | -1.24016 | 103.83317 | 39866 ft | 484 kts | 333° |
| 2026-05-04 21:38 | -1.18090 | 103.80200 | 39868 ft | 484 kts | 333° |
| 2026-05-04 21:38 | -1.12129 | 103.77065 | 39866 ft | 484 kts | 333° |
| 2026-05-04 21:39 | -1.06173 | 103.73931 | 39862 ft | 483 kts | 333° |
| 2026-05-04 21:39 | -1.01722 | 103.71589 | 39866 ft | 483 kts | 333° |
| 2026-05-04 21:40 | -0.95758 | 103.68454 | 39869 ft | 485 kts | 333° |
| 2026-05-04 21:40 | -0.89785 | 103.65310 | 39867 ft | 486 kts | 333° |
| 2026-05-04 21:41 | -0.83798 | 103.62164 | 39868 ft | 485 kts | 333° |
| 2026-05-04 21:41 | -0.77819 | 103.59017 | 39869 ft | 485 kts | 333° |
| 2026-05-04 21:42 | -0.71845 | 103.55876 | 39869 ft | 485 kts | 333° |
| 2026-05-04 21:42 | -0.65874 | 103.52736 | 39868 ft | 485 kts | 333° |
| 2026-05-04 21:43 | -0.59949 | 103.49618 | 39853 ft | 485 kts | 333° |
| 2026-05-04 21:43 | -0.53988 | 103.46486 | 39854 ft | 484 kts | 333° |
| 2026-05-04 21:44 | -0.48027 | 103.43349 | 39852 ft | 484 kts | 333° |
| 2026-05-04 21:44 | -0.42052 | 103.40208 | 39854 ft | 485 kts | 333° |
| 2026-05-04 21:45 | -0.36075 | 103.37065 | 39859 ft | 486 kts | 333° |
| 2026-05-04 21:45 | -0.30087 | 103.33918 | 39860 ft | 486 kts | 333° |
| 2026-05-04 21:45 | -0.27131 | 103.32362 | 39842 ft | 473 kts | 333° |
| 2026-05-04 21:46 | -0.24250 | 103.30847 | 39847 ft | 465 kts | 333° |
| 2026-05-04 21:46 | -0.18476 | 103.27812 | 39847 ft | 474 kts | 333° |
| 2026-05-04 21:47 | -0.12625 | 103.24735 | 39860 ft | 483 kts | 333° |
| 2026-05-04 21:47 | -0.06644 | 103.21590 | 39862 ft | 487 kts | 333° |
| 2026-05-04 21:48 | -0.00646 | 103.18435 | 39863 ft | 486 kts | 333° |
| 2026-05-04 21:48 | 0.05343 | 103.15288 | 39860 ft | 486 kts | 333° |
| 2026-05-04 21:49 | 0.11326 | 103.12141 | 39862 ft | 486 kts | 333° |
| 2026-05-04 21:49 | 0.17306 | 103.08996 | 39861 ft | 485 kts | 333° |
| 2026-05-04 21:50 | 0.23277 | 103.05856 | 39858 ft | 484 kts | 333° |
| 2026-05-04 21:50 | 0.29237 | 103.02722 | 39855 ft | 483 kts | 333° |
| 2026-05-04 21:51 | 0.35204 | 102.99585 | 39858 ft | 486 kts | 333° |
| 2026-05-04 21:51 | 0.41196 | 102.96434 | 39861 ft | 487 kts | 333° |
| 2026-05-04 21:52 | 0.47154 | 102.93301 | 39863 ft | 487 kts | 333° |
| 2026-05-04 21:52 | 0.53147 | 102.90150 | 39855 ft | 486 kts | 333° |
| 2026-05-04 21:53 | 0.59120 | 102.87009 | 39853 ft | 485 kts | 333° |
| 2026-05-04 21:53 | 0.65101 | 102.83863 | 39856 ft | 486 kts | 333° |
| 2026-05-04 21:54 | 0.71087 | 102.80715 | 39855 ft | 486 kts | 333° |
| 2026-05-04 21:54 | 0.77007 | 102.77601 | 39841 ft | 469 kts | 333° |
| 2026-05-04 21:54 | 0.79885 | 102.76088 | 39211 ft | 469 kts | 333° |
| 2026-05-04 21:55 | 0.82786 | 102.74563 | 38493 ft | 472 kts | 333° |
| 2026-05-04 21:55 | 0.85693 | 102.73034 | 37846 ft | 473 kts | 333° |
| 2026-05-04 21:55 | 0.88606 | 102.71500 | 37161 ft | 473 kts | 333° |
| 2026-05-04 21:55 | 0.91522 | 102.69968 | 36479 ft | 474 kts | 333° |
| 2026-05-04 21:56 | 0.94442 | 102.68432 | 35789 ft | 475 kts | 333° |
| 2026-05-04 21:56 | 0.96383 | 102.67411 | 35200 ft | 477 kts | 333° |
| 2026-05-04 21:56 | 0.99343 | 102.65854 | 34174 ft | 484 kts | 332° |
| 2026-05-04 21:56 | 1.02346 | 102.64275 | 33288 ft | 489 kts | 332° |
| 2026-05-04 21:57 | 1.05329 | 102.62705 | 32945 ft | 481 kts | 333° |
| 2026-05-04 21:57 | 1.08294 | 102.61145 | 32597 ft | 485 kts | 332° |
| 2026-05-04 21:57 | 1.11302 | 102.59563 | 32245 ft | 491 kts | 332° |
| 2026-05-04 21:57 | 1.14330 | 102.57970 | 31895 ft | 493 kts | 333° |
| 2026-05-04 21:58 | 1.17366 | 102.56373 | 31543 ft | 494 kts | 333° |
| 2026-05-04 21:58 | 1.20411 | 102.54771 | 31187 ft | 495 kts | 333° |
| 2026-05-04 21:58 | 1.23453 | 102.53170 | 30826 ft | 495 kts | 333° |
| 2026-05-04 21:58 | 1.26507 | 102.51564 | 30466 ft | 497 kts | 333° |
| 2026-05-04 21:59 | 1.29569 | 102.49953 | 30101 ft | 497 kts | 333° |
| 2026-05-04 21:59 | 1.32611 | 102.48352 | 29356 ft | 494 kts | 333° |
| 2026-05-04 21:59 | 1.35650 | 102.46753 | 28417 ft | 493 kts | 333° |
| 2026-05-04 21:59 | 1.38682 | 102.45158 | 27465 ft | 491 kts | 333° |
| 2026-05-04 22:00 | 1.41699 | 102.43569 | 26534 ft | 488 kts | 333° |
| 2026-05-04 22:00 | 1.44692 | 102.41995 | 25596 ft | 485 kts | 333° |
| 2026-05-04 22:00 | 1.47674 | 102.40427 | 24679 ft | 482 kts | 333° |
| 2026-05-04 22:00 | 1.50627 | 102.38873 | 23770 ft | 478 kts | 333° |
| 2026-05-04 22:01 | 1.53523 | 102.37349 | 22880 ft | 474 kts | 333° |
| 2026-05-04 22:01 | 1.56469 | 102.35798 | 21982 ft | 470 kts | 333° |
| 2026-05-04 22:01 | 1.59346 | 102.34284 | 21099 ft | 464 kts | 333° |
| 2026-05-04 22:01 | 1.62181 | 102.32792 | 20229 ft | 459 kts | 333° |
| 2026-05-04 22:02 | 1.64908 | 102.31355 | 19386 ft | 425 kts | 333° |
| 2026-05-04 22:02 | 1.67416 | 102.30035 | 18634 ft | 409 kts | 333° |
| 2026-05-04 22:02 | 1.69927 | 102.28715 | 17879 ft | 407 kts | 333° |
| 2026-05-04 22:02 | 1.72419 | 102.27404 | 17119 ft | 403 kts | 333° |
| 2026-05-04 22:03 | 1.74900 | 102.26098 | 16380 ft | 400 kts | 333° |
| 2026-05-04 22:03 | 1.77356 | 102.24804 | 15632 ft | 397 kts | 333° |
| 2026-05-04 22:03 | 1.79784 | 102.23527 | 14891 ft | 393 kts | 333° |
| 2026-05-04 22:03 | 1.82193 | 102.22258 | 14166 ft | 389 kts | 333° |
| 2026-05-04 22:04 | 1.84571 | 102.21006 | 13442 ft | 384 kts | 333° |
| 2026-05-04 22:04 | 1.86905 | 102.19778 | 12725 ft | 368 kts | 333° |
| 2026-05-04 22:04 | 1.89060 | 102.18642 | 12083 ft | 333 kts | 333° |
| 2026-05-04 22:04 | 1.91045 | 102.17597 | 11654 ft | 318 kts | 333° |
| 2026-05-04 22:05 | 1.93002 | 102.16568 | 11146 ft | 316 kts | 333° |
| 2026-05-04 22:05 | 1.94910 | 102.15563 | 10928 ft | 303 kts | 333° |
| 2026-05-04 22:05 | 1.96725 | 102.14607 | 10819 ft | 288 kts | 333° |
| 2026-05-04 22:05 | 1.98451 | 102.13698 | 10697 ft | 273 kts | 333° |
| 2026-05-04 22:06 | 2.00091 | 102.12835 | 10585 ft | 262 kts | 333° |
| 2026-05-04 22:06 | 2.01712 | 102.11983 | 10487 ft | 266 kts | 333° |
| 2026-05-04 22:06 | 2.03357 | 102.11116 | 10361 ft | 268 kts | 333° |
| 2026-05-04 22:06 | 2.04987 | 102.10257 | 10099 ft | 261 kts | 333° |
| 2026-05-04 22:07 | 2.06600 | 102.09408 | 9831 ft | 263 kts | 333° |
| 2026-05-04 22:07 | 2.08225 | 102.08552 | 9563 ft | 263 kts | 333° |
| 2026-05-04 22:07 | 2.09841 | 102.07701 | 9290 ft | 261 kts | 332° |
| 2026-05-04 22:07 | 2.11432 | 102.06863 | 9023 ft | 257 kts | 332° |
| 2026-05-04 22:08 | 2.13021 | 102.06027 | 8763 ft | 259 kts | 332° |
| 2026-05-04 22:08 | 2.14594 | 102.05198 | 8490 ft | 259 kts | 332° |
| 2026-05-04 22:08 | 2.16179 | 102.04364 | 8203 ft | 255 kts | 332° |
| 2026-05-04 22:08 | 2.17737 | 102.03543 | 7950 ft | 254 kts | 332° |
| 2026-05-04 22:09 | 2.19333 | 102.02703 | 7701 ft | 270 kts | 332° |
| 2026-05-04 22:09 | 2.21052 | 102.01796 | 7411 ft | 284 kts | 332° |
| 2026-05-04 22:09 | 2.22808 | 102.00872 | 7105 ft | 283 kts | 332° |
| 2026-05-04 22:09 | 2.24528 | 101.99965 | 6800 ft | 279 kts | 332° |
| 2026-05-04 22:10 | 2.26258 | 101.99055 | 6500 ft | 281 kts | 332° |
| 2026-05-04 22:10 | 2.27983 | 101.98146 | 6197 ft | 280 kts | 332° |
| 2026-05-04 22:10 | 2.29697 | 101.97245 | 5893 ft | 274 kts | 332° |
| 2026-05-04 22:10 | 2.31383 | 101.96355 | 5608 ft | 276 kts | 332° |
| 2026-05-04 22:11 | 2.33081 | 101.95460 | 5297 ft | 276 kts | 332° |
| 2026-05-04 22:11 | 2.34776 | 101.94568 | 5003 ft | 275 kts | 332° |
| 2026-05-04 22:11 | 2.36455 | 101.93683 | 4701 ft | 269 kts | 332° |
| 2026-05-04 22:11 | 2.38113 | 101.92809 | 4413 ft | 271 kts | 332° |
| 2026-05-04 22:12 | 2.39783 | 101.91927 | 4126 ft | 271 kts | 332° |
| 2026-05-04 22:12 | 2.41425 | 101.91063 | 3995 ft | 264 kts | 333° |
| 2026-05-04 22:12 | 2.43045 | 101.90211 | 3901 ft | 262 kts | 332° |
| 2026-05-04 22:12 | 2.44649 | 101.89366 | 3801 ft | 255 kts | 332° |
| 2026-05-04 22:13 | 2.46180 | 101.88559 | 3671 ft | 245 kts | 332° |
| 2026-05-04 22:13 | 2.47607 | 101.87684 | 3583 ft | 235 kts | 323° |
| 2026-05-04 22:13 | 2.48931 | 101.86768 | 3521 ft | 229 kts | 328° |
| 2026-05-04 22:13 | 2.50280 | 101.85947 | 3519 ft | 227 kts | 330° |
| 2026-05-04 22:14 | 2.51609 | 101.85103 | 3523 ft | 226 kts | 326° |
| 2026-05-04 22:14 | 2.52916 | 101.84224 | 3511 ft | 226 kts | 326° |
| 2026-05-04 22:14 | 2.54188 | 101.83364 | 3505 ft | 215 kts | 326° |
| 2026-05-04 22:14 | 2.55365 | 101.82569 | 3489 ft | 201 kts | 326° |
| 2026-05-04 22:15 | 2.56509 | 101.81797 | 3481 ft | 198 kts | 326° |
| 2026-05-04 22:15 | 2.57657 | 101.81022 | 3258 ft | 199 kts | 326° |
| 2026-05-04 22:15 | 2.58794 | 101.80256 | 3000 ft | 196 kts | 326° |
| 2026-05-04 22:15 | 2.59917 | 101.79497 | 2748 ft | 194 kts | 326° |
| 2026-05-04 22:16 | 2.61033 | 101.78747 | 2486 ft | 193 kts | 327° |
| 2026-05-04 22:16 | 2.62112 | 101.78026 | 2235 ft | 178 kts | 327° |
| 2026-05-04 22:16 | 2.63098 | 101.77363 | 2008 ft | 166 kts | 326° |
| 2026-05-04 22:16 | 2.64031 | 101.76732 | 1790 ft | 160 kts | 326° |
| 2026-05-04 22:17 | 2.64951 | 101.76111 | 1581 ft | 159 kts | 326° |
| 2026-05-04 22:17 | 2.65862 | 101.75497 | 1372 ft | 158 kts | 326° |
| 2026-05-04 22:17 | 2.66772 | 101.74888 | 1163 ft | 158 kts | 327° |
| 2026-05-04 22:17 | 2.67686 | 101.74275 | 952 ft | 158 kts | 326° |
| 2026-05-04 22:18 | 2.68591 | 101.73667 | 739 ft | 156 kts | 323° |
| 2026-05-04 22:18 | 2.69487 | 101.73054 | 531 ft | 155 kts | 326° |
| 2026-05-04 22:18 | 2.70375 | 101.72443 | 352 ft | 156 kts | 326° |
| 2026-05-04 22:18 | 2.71273 | 101.71840 | 141 ft | 155 kts | 326° |
| 2026-05-04 22:19 | 2.72120 | 101.71272 | 57 ft | 128 kts | 326° |
| 2026-05-04 22:19 | 2.72691 | 101.70889 | 55 ft | 69 kts | 326° |
| 2026-05-04 22:19 | 2.73002 | 101.70684 | 60 ft | 44 kts | 328° |
| 2026-05-04 22:19 | 2.73212 | 101.70547 | 60 ft | 29 kts | 323° |
| 2026-05-04 22:20 | 2.73351 | 101.70451 | 61 ft | 19 kts | 327° |
| 2026-05-04 22:20 | 2.73434 | 101.70392 | 62 ft | 12 kts | 326° |
| 2026-05-04 22:20 | 2.73497 | 101.70351 | 64 ft | 11 kts | 327° |
| 2026-05-04 22:20 | 2.73567 | 101.70306 | 63 ft | 13 kts | 327° |
| 2026-05-04 22:21 | 2.73651 | 101.70249 | 59 ft | 16 kts | 321° |
| 2026-05-04 22:21 | 2.73724 | 101.70155 | 60 ft | 19 kts | 300° |
| 2026-05-04 22:21 | 2.73791 | 101.70041 | 62 ft | 20 kts | 302° |
| 2026-05-04 22:21 | 2.73868 | 101.69916 | 58 ft | 21 kts | 305° |
| 2026-05-04 22:22 | 2.73985 | 101.69825 | 55 ft | 22 kts | 324° |
| 2026-05-04 22:22 | 2.74102 | 101.69745 | 60 ft | 18 kts | 325° |
| 2026-05-04 22:22 | 2.74194 | 101.69683 | 54 ft | 14 kts | 327° |
| 2026-05-04 22:22 | 2.74243 | 101.69624 | 61 ft | 8 kts | 275° |
| 2026-05-04 22:23 | 2.74219 | 101.69569 | 58 ft | 11 kts | 236° |
| 2026-05-04 22:23 | 2.74174 | 101.69501 | 56 ft | 13 kts | 237° |
| 2026-05-04 22:23 | 2.74117 | 101.69415 | 49 ft | 17 kts | 236° |
| 2026-05-04 22:23 | 2.74084 | 101.69321 | 46 ft | 10 kts | 287° |
| 2026-05-04 22:24 | 2.74103 | 101.69284 | 47 ft | 0 kts | 306° |